sensor_id;sensor_type;location;lat;lon;timestamp;temperature;humidity
29417;DHT22;28421;51.030;4.006;2022-08-06T00:04:22;12.50;99.90
29417;DHT22;28421;51.030;4.006;2022-08-06T00:14:07;12.00;99.90
29417;DHT22;28421;51.030;4.006;2022-08-06T00:16:32;12.00;99.90
29417;DHT22;28421;51.030;4.006;2022-08-06T00:28:43;12.00;99.90
29417;DHT22;28421;51.030;4.006;2022-08-06T00:33:35;11.90;99.90
29417;DHT22;28421;51.030;4.006;2022-08-06T00:43:19;11.70;99.90
29417;DHT22;28421;51.030;4.006;2022-08-06T00:48:14;12.30;99.90
29417;DHT22;28421;51.030;4.006;2022-08-06T01:15:06;11.50;99.90
29417;DHT22;28421;51.030;4.006;2022-08-06T01:18:16;11.60;99.90
29417;DHT22;28421;51.030;4.006;2022-08-06T01:25:57;11.50;99.90
29417;DHT22;28421;51.030;4.006;2022-08-06T01:28:28;11.60;99.90
29417;DHT22;28421;51.030;4.006;2022-08-06T01:31:02;11.80;99.90
29417;DHT22;28421;51.030;4.006;2022-08-06T01:33:35;11.70;99.90
29417;DHT22;28421;51.030;4.006;2022-08-06T01:36:05;11.70;99.90
29417;DHT22;28421;51.030;4.006;2022-08-06T01:38:45;11.60;99.90
29417;DHT22;28421;51.030;4.006;2022-08-06T01:41:16;11.60;99.90
29417;DHT22;28421;51.030;4.006;2022-08-06T01:44:24;11.80;99.90
29417;DHT22;28421;51.030;4.006;2022-08-06T01:46:53;11.80;99.90
29417;DHT22;28421;51.030;4.006;2022-08-06T01:49:25;11.70;99.90
29417;DHT22;28421;51.030;4.006;2022-08-06T01:51:53;11.30;99.90
29417;DHT22;28421;51.030;4.006;2022-08-06T01:54:20;11.20;99.90
29417;DHT22;28421;51.030;4.006;2022-08-06T01:56:51;11.50;99.90
29417;DHT22;28421;51.030;4.006;2022-08-06T01:59:21;10.60;99.90
29417;DHT22;28421;51.030;4.006;2022-08-06T02:01:52;10.90;99.90
29417;DHT22;28421;51.030;4.006;2022-08-06T02:04:22;11.10;99.90
29417;DHT22;28421;51.030;4.006;2022-08-06T02:06:50;10.60;99.90
29417;DHT22;28421;51.030;4.006;2022-08-06T02:09:19;8.70;99.90
29417;DHT22;28421;51.030;4.006;2022-08-06T02:11:50;10.90;99.90
29417;DHT22;28421;51.030;4.006;2022-08-06T02:14:19;10.90;99.90
29417;DHT22;28421;51.030;4.006;2022-08-06T02:19:13;11.00;99.90
29417;DHT22;28421;51.030;4.006;2022-08-06T02:21:43;11.00;99.90
29417;DHT22;28421;51.030;4.006;2022-08-06T02:24:11;10.90;99.90
29417;DHT22;28421;51.030;4.006;2022-08-06T02:26:39;10.80;99.90
29417;DHT22;28421;51.030;4.006;2022-08-06T02:29:14;11.00;99.90
29417;DHT22;28421;51.030;4.006;2022-08-06T02:31:42;10.90;99.90
29417;DHT22;28421;51.030;4.006;2022-08-06T02:36:40;10.80;99.90
29417;DHT22;28421;51.030;4.006;2022-08-06T02:39:11;10.70;99.90
29417;DHT22;28421;51.030;4.006;2022-08-06T02:41:48;10.70;99.90
29417;DHT22;28421;51.030;4.006;2022-08-06T02:44:22;10.40;99.90
29417;DHT22;28421;51.030;4.006;2022-08-06T02:46:53;10.80;99.90
29417;DHT22;28421;51.030;4.006;2022-08-06T02:49:25;10.70;99.90
29417;DHT22;28421;51.030;4.006;2022-08-06T02:51:55;10.60;99.90
29417;DHT22;28421;51.030;4.006;2022-08-06T02:54:39;10.90;99.90
29417;DHT22;28421;51.030;4.006;2022-08-06T02:57:09;10.50;99.90
29417;DHT22;28421;51.030;4.006;2022-08-06T02:59:43;10.60;99.90
29417;DHT22;28421;51.030;4.006;2022-08-06T03:02:12;10.50;99.90
29417;DHT22;28421;51.030;4.006;2022-08-06T03:04:43;10.30;99.90
29417;DHT22;28421;51.030;4.006;2022-08-06T03:07:12;10.60;99.90
29417;DHT22;28421;51.030;4.006;2022-08-06T03:09:42;10.40;99.90
29417;DHT22;28421;51.030;4.006;2022-08-06T03:12:12;10.60;99.90
29417;DHT22;28421;51.030;4.006;2022-08-06T03:14:39;10.20;99.90
29417;DHT22;28421;51.030;4.006;2022-08-06T03:17:06;10.80;99.90
29417;DHT22;28421;51.030;4.006;2022-08-06T03:19:33;10.40;99.90
29417;DHT22;28421;51.030;4.006;2022-08-06T03:22:01;10.70;99.90
29417;DHT22;28421;51.030;4.006;2022-08-06T03:24:28;10.40;99.90
29417;DHT22;28421;51.030;4.006;2022-08-06T03:26:59;10.80;99.90
29417;DHT22;28421;51.030;4.006;2022-08-06T03:29:26;11.00;99.90
29417;DHT22;28421;51.030;4.006;2022-08-06T03:31:53;11.20;99.90
29417;DHT22;28421;51.030;4.006;2022-08-06T03:34:20;11.10;99.90
29417;DHT22;28421;51.030;4.006;2022-08-06T03:36:46;10.90;99.90
29417;DHT22;28421;51.030;4.006;2022-08-06T03:39:14;11.00;99.90
29417;DHT22;28421;51.030;4.006;2022-08-06T03:41:40;10.90;99.90
29417;DHT22;28421;51.030;4.006;2022-08-06T03:44:08;10.90;99.90
29417;DHT22;28421;51.030;4.006;2022-08-06T03:46:48;10.60;99.90
29417;DHT22;28421;51.030;4.006;2022-08-06T03:49:25;10.30;99.90
29417;DHT22;28421;51.030;4.006;2022-08-06T03:51:52;10.70;99.90
29417;DHT22;28421;51.030;4.006;2022-08-06T03:54:25;12.30;99.90
29417;DHT22;28421;51.030;4.006;2022-08-06T03:56:52;10.40;99.90
29417;DHT22;28421;51.030;4.006;2022-08-06T03:59:20;10.10;99.90
29417;DHT22;28421;51.030;4.006;2022-08-06T04:01:47;9.70;99.90
29417;DHT22;28421;51.030;4.006;2022-08-06T04:04:14;10.20;99.90
29417;DHT22;28421;51.030;4.006;2022-08-06T04:06:42;10.00;99.90
29417;DHT22;28421;51.030;4.006;2022-08-06T04:09:09;10.00;99.90
29417;DHT22;28421;51.030;4.006;2022-08-06T04:11:35;10.10;99.90
29417;DHT22;28421;51.030;4.006;2022-08-06T04:16:28;10.10;99.90
29417;DHT22;28421;51.030;4.006;2022-08-06T04:18:56;10.30;99.90
29417;DHT22;28421;51.030;4.006;2022-08-06T04:21:23;10.30;99.90
29417;DHT22;28421;51.030;4.006;2022-08-06T04:23:50;10.30;99.90
29417;DHT22;28421;51.030;4.006;2022-08-06T04:26:18;10.30;99.90
29417;DHT22;28421;51.030;4.006;2022-08-06T04:28:51;10.30;99.90
29417;DHT22;28421;51.030;4.006;2022-08-06T04:31:19;9.90;99.90
29417;DHT22;28421;51.030;4.006;2022-08-06T04:33:45;10.10;99.90
29417;DHT22;28421;51.030;4.006;2022-08-06T04:36:11;10.50;99.90
29417;DHT22;28421;51.030;4.006;2022-08-06T04:38:38;10.70;99.90
29417;DHT22;28421;51.030;4.006;2022-08-06T04:41:05;10.80;99.90
29417;DHT22;28421;51.030;4.006;2022-08-06T04:48:24;9.90;99.90
29417;DHT22;28421;51.030;4.006;2022-08-06T04:53:18;10.80;99.90
29417;DHT22;28421;51.030;4.006;2022-08-06T04:55:45;10.70;99.90
29417;DHT22;28421;51.030;4.006;2022-08-06T04:58:12;10.80;99.90
29417;DHT22;28421;51.030;4.006;2022-08-06T05:00:46;11.20;99.90
29417;DHT22;28421;51.030;4.006;2022-08-06T05:05:43;11.60;99.90
29417;DHT22;28421;51.030;4.006;2022-08-06T05:08:11;11.30;99.90
29417;DHT22;28421;51.030;4.006;2022-08-06T05:10:47;11.50;99.90
29417;DHT22;28421;51.030;4.006;2022-08-06T05:13:14;11.30;99.90
29417;DHT22;28421;51.030;4.006;2022-08-06T05:15:43;11.60;99.90
29417;DHT22;28421;51.030;4.006;2022-08-06T05:18:15;11.50;99.90
29417;DHT22;28421;51.030;4.006;2022-08-06T05:20:47;11.70;99.90
29417;DHT22;28421;51.030;4.006;2022-08-06T05:23:18;11.70;99.90
29417;DHT22;28421;51.030;4.006;2022-08-06T05:25:44;11.50;99.90
29417;DHT22;28421;51.030;4.006;2022-08-06T05:30:44;12.00;99.90
29417;DHT22;28421;51.030;4.006;2022-08-06T05:33:11;12.20;99.90
29417;DHT22;28421;51.030;4.006;2022-08-06T05:40:29;12.00;99.90
29417;DHT22;28421;51.030;4.006;2022-08-06T05:42:59;12.30;99.90
29417;DHT22;28421;51.030;4.006;2022-08-06T05:45:26;12.30;99.90
29417;DHT22;28421;51.030;4.006;2022-08-06T05:47:53;12.20;99.90
29417;DHT22;28421;51.030;4.006;2022-08-06T05:50:22;12.70;99.90
29417;DHT22;28421;51.030;4.006;2022-08-06T05:53:04;12.80;99.90
29417;DHT22;28421;51.030;4.006;2022-08-06T05:55:43;13.20;99.90
29417;DHT22;28421;51.030;4.006;2022-08-06T05:58:17;13.20;99.90
29417;DHT22;28421;51.030;4.006;2022-08-06T06:00:44;13.20;99.90
29417;DHT22;28421;51.030;4.006;2022-08-06T06:03:15;12.80;99.90
29417;DHT22;28421;51.030;4.006;2022-08-06T06:05:42;13.00;99.90
29417;DHT22;28421;51.030;4.006;2022-08-06T06:08:09;13.30;99.90
29417;DHT22;28421;51.030;4.006;2022-08-06T06:10:36;13.70;99.90
29417;DHT22;28421;51.030;4.006;2022-08-06T06:13:04;13.30;99.90
29417;DHT22;28421;51.030;4.006;2022-08-06T06:15:32;13.40;99.90
29417;DHT22;28421;51.030;4.006;2022-08-06T06:21:24;13.80;99.90
29417;DHT22;28421;51.030;4.006;2022-08-06T06:24:08;13.90;99.90
29417;DHT22;28421;51.030;4.006;2022-08-06T06:26:48;14.10;99.90
29417;DHT22;28421;51.030;4.006;2022-08-06T06:29:38;14.50;99.90
29417;DHT22;28421;51.030;4.006;2022-08-06T06:46:28;15.30;99.90
29417;DHT22;28421;51.030;4.006;2022-08-06T06:48:54;15.40;99.90
29417;DHT22;28421;51.030;4.006;2022-08-06T06:53:53;15.40;99.90
29417;DHT22;28421;51.030;4.006;2022-08-06T06:56:24;15.50;99.90
29417;DHT22;28421;51.030;4.006;2022-08-06T07:01:20;16.10;99.90
29417;DHT22;28421;51.030;4.006;2022-08-06T07:03:46;15.70;99.90
29417;DHT22;28421;51.030;4.006;2022-08-06T07:06:14;16.10;99.90
29417;DHT22;28421;51.030;4.006;2022-08-06T07:08:43;16.50;99.90
29417;DHT22;28421;51.030;4.006;2022-08-06T07:11:18;16.50;99.90
29417;DHT22;28421;51.030;4.006;2022-08-06T07:13:45;16.60;99.90
29417;DHT22;28421;51.030;4.006;2022-08-06T07:16:14;16.90;99.90
29417;DHT22;28421;51.030;4.006;2022-08-06T07:18:42;16.70;99.90
29417;DHT22;28421;51.030;4.006;2022-08-06T07:23:35;17.20;99.90
29417;DHT22;28421;51.030;4.006;2022-08-06T07:26:02;17.60;99.90
29417;DHT22;28421;51.030;4.006;2022-08-06T07:28:29;17.00;99.90
29417;DHT22;28421;51.030;4.006;2022-08-06T07:30:57;19.40;99.90
29417;DHT22;28421;51.030;4.006;2022-08-06T07:33:24;16.90;99.90
29417;DHT22;28421;51.030;4.006;2022-08-06T07:35:51;17.40;99.90
29417;DHT22;28421;51.030;4.006;2022-08-06T07:38:18;17.40;99.90
29417;DHT22;28421;51.030;4.006;2022-08-06T07:40:52;16.90;99.90
29417;DHT22;28421;51.030;4.006;2022-08-06T07:43:43;17.40;99.90
29417;DHT22;28421;51.030;4.006;2022-08-06T07:46:13;17.40;99.90
29417;DHT22;28421;51.030;4.006;2022-08-06T07:49:01;17.60;99.90
29417;DHT22;28421;51.030;4.006;2022-08-06T07:51:35;17.60;99.90
29417;DHT22;28421;51.030;4.006;2022-08-06T07:54:05;17.80;99.90
29417;DHT22;28421;51.030;4.006;2022-08-06T07:56:32;18.40;99.90
29417;DHT22;28421;51.030;4.006;2022-08-06T07:59:00;18.40;99.90
29417;DHT22;28421;51.030;4.006;2022-08-06T08:01:27;18.20;99.90
29417;DHT22;28421;51.030;4.006;2022-08-06T08:03:54;17.90;99.90
29417;DHT22;28421;51.030;4.006;2022-08-06T08:06:39;18.10;99.90
29417;DHT22;28421;51.030;4.006;2022-08-06T08:09:16;18.00;99.90
29417;DHT22;28421;51.030;4.006;2022-08-06T08:11:45;18.30;99.90
29417;DHT22;28421;51.030;4.006;2022-08-06T08:14:13;18.30;99.90
29417;DHT22;28421;51.030;4.006;2022-08-06T08:16:42;18.40;99.90
29417;DHT22;28421;51.030;4.006;2022-08-06T08:21:53;18.50;99.90
29417;DHT22;28421;51.030;4.006;2022-08-06T08:24:23;18.50;99.90
29417;DHT22;28421;51.030;4.006;2022-08-06T08:29:15;19.10;99.90
29417;DHT22;28421;51.030;4.006;2022-08-06T08:31:41;18.70;99.90
29417;DHT22;28421;51.030;4.006;2022-08-06T08:36:33;19.00;99.90
29417;DHT22;28421;51.030;4.006;2022-08-06T08:41:40;19.50;99.90
29417;DHT22;28421;51.030;4.006;2022-08-06T08:44:07;19.70;99.90
29417;DHT22;28421;51.030;4.006;2022-08-06T08:46:43;19.80;99.90
29417;DHT22;28421;51.030;4.006;2022-08-06T08:49:30;19.60;99.90
29417;DHT22;28421;51.030;4.006;2022-08-06T08:51:58;19.70;99.90
29417;DHT22;28421;51.030;4.006;2022-08-06T08:54:26;19.10;99.90
29417;DHT22;28421;51.030;4.006;2022-08-06T08:56:53;19.30;99.90
29417;DHT22;28421;51.030;4.006;2022-08-06T08:59:19;19.50;99.90
29417;DHT22;28421;51.030;4.006;2022-08-06T09:01:46;19.80;99.90
29417;DHT22;28421;51.030;4.006;2022-08-06T09:06:39;19.80;99.90
29417;DHT22;28421;51.030;4.006;2022-08-06T09:09:05;20.20;99.90
29417;DHT22;28421;51.030;4.006;2022-08-06T09:11:35;19.80;99.90
29417;DHT22;28421;51.030;4.006;2022-08-06T09:14:03;19.70;99.90
29417;DHT22;28421;51.030;4.006;2022-08-06T09:16:32;19.50;99.90
29417;DHT22;28421;51.030;4.006;2022-08-06T09:18:59;20.30;99.90
29417;DHT22;28421;51.030;4.006;2022-08-06T09:21:26;20.20;99.90
29417;DHT22;28421;51.030;4.006;2022-08-06T09:23:51;20.40;99.50
29417;DHT22;28421;51.030;4.006;2022-08-06T09:26:17;20.10;99.90
29417;DHT22;28421;51.030;4.006;2022-08-06T09:28:44;20.30;99.40
29417;DHT22;28421;51.030;4.006;2022-08-06T09:33:41;20.70;99.90
29417;DHT22;28421;51.030;4.006;2022-08-06T09:36:13;20.50;97.40
29417;DHT22;28421;51.030;4.006;2022-08-06T09:38:59;20.60;99.90
29417;DHT22;28421;51.030;4.006;2022-08-06T09:41:27;20.20;97.20
29417;DHT22;28421;51.030;4.006;2022-08-06T09:43:55;19.80;99.90
29417;DHT22;28421;51.030;4.006;2022-08-06T09:49:07;20.10;99.90
29417;DHT22;28421;51.030;4.006;2022-08-06T09:54:02;20.50;95.90
29417;DHT22;28421;51.030;4.006;2022-08-06T09:59:04;20.90;95.80
29417;DHT22;28421;51.030;4.006;2022-08-06T10:01:38;21.00;95.20
29417;DHT22;28421;51.030;4.006;2022-08-06T10:04:04;21.00;99.90
29417;DHT22;28421;51.030;4.006;2022-08-06T10:09:10;21.80;99.90
29417;DHT22;28421;51.030;4.006;2022-08-06T10:11:39;21.60;99.90
29417;DHT22;28421;51.030;4.006;2022-08-06T10:17:08;20.80;99.90
29417;DHT22;28421;51.030;4.006;2022-08-06T10:19:36;20.70;99.90
29417;DHT22;28421;51.030;4.006;2022-08-06T10:24:54;22.00;99.90
29417;DHT22;28421;51.030;4.006;2022-08-06T10:27:22;21.40;94.60
29417;DHT22;28421;51.030;4.006;2022-08-06T10:29:53;21.50;99.90
29417;DHT22;28421;51.030;4.006;2022-08-06T10:32:43;21.60;99.90
29417;DHT22;28421;51.030;4.006;2022-08-06T10:35:11;21.70;99.90
29417;DHT22;28421;51.030;4.006;2022-08-06T10:37:41;21.80;99.90
29417;DHT22;28421;51.030;4.006;2022-08-06T10:40:09;21.70;99.90
29417;DHT22;28421;51.030;4.006;2022-08-06T10:42:37;21.80;93.80
29417;DHT22;28421;51.030;4.006;2022-08-06T10:45:04;21.10;99.90
29417;DHT22;28421;51.030;4.006;2022-08-06T10:47:32;21.80;97.50
29417;DHT22;28421;51.030;4.006;2022-08-06T10:49:58;21.90;99.90
29417;DHT22;28421;51.030;4.006;2022-08-06T10:52:25;21.90;99.90
29417;DHT22;28421;51.030;4.006;2022-08-06T10:54:51;22.30;93.10
29417;DHT22;28421;51.030;4.006;2022-08-06T10:57:18;22.80;99.90
29417;DHT22;28421;51.030;4.006;2022-08-06T10:59:45;22.60;90.90
29417;DHT22;28421;51.030;4.006;2022-08-06T11:02:16;22.70;99.40
29417;DHT22;28421;51.030;4.006;2022-08-06T11:05:09;22.60;99.90
29417;DHT22;28421;51.030;4.006;2022-08-06T11:13:33;22.00;92.20
29417;DHT22;28421;51.030;4.006;2022-08-06T11:16:01;22.00;97.70
29417;DHT22;28421;51.030;4.006;2022-08-06T11:18:27;21.50;99.90
29417;DHT22;28421;51.030;4.006;2022-08-06T11:20:53;21.60;92.40
29417;DHT22;28421;51.030;4.006;2022-08-06T11:23:25;22.00;99.90
29417;DHT22;28421;51.030;4.006;2022-08-06T11:25:52;21.20;99.30
29417;DHT22;28421;51.030;4.006;2022-08-06T11:31:05;21.00;91.20
29417;DHT22;28421;51.030;4.006;2022-08-06T11:36:09;21.50;91.40
29417;DHT22;28421;51.030;4.006;2022-08-06T11:41:23;22.40;90.70
29417;DHT22;28421;51.030;4.006;2022-08-06T11:46:36;22.90;98.50
29417;DHT22;28421;51.030;4.006;2022-08-06T11:51:46;22.40;90.50
29417;DHT22;28421;51.030;4.006;2022-08-06T11:54:16;22.70;90.30
29417;DHT22;28421;51.030;4.006;2022-08-06T11:59:38;22.90;90.10
29417;DHT22;28421;51.030;4.006;2022-08-06T12:02:08;22.70;89.90
29417;DHT22;28421;51.030;4.006;2022-08-06T12:07:24;22.30;90.70
29417;DHT22;28421;51.030;4.006;2022-08-06T12:12:39;22.50;89.10
29417;DHT22;28421;51.030;4.006;2022-08-06T12:17:58;22.50;88.30
29417;DHT22;28421;51.030;4.006;2022-08-06T12:23:05;23.20;86.50
29417;DHT22;28421;51.030;4.006;2022-08-06T12:25:32;23.10;87.00
29417;DHT22;28421;51.030;4.006;2022-08-06T12:27:58;23.00;86.60
29417;DHT22;28421;51.030;4.006;2022-08-06T12:30:24;23.10;86.90
29417;DHT22;28421;51.030;4.006;2022-08-06T12:32:59;22.60;85.60
29417;DHT22;28421;51.030;4.006;2022-08-06T12:35:26;22.50;88.30
29417;DHT22;28421;51.030;4.006;2022-08-06T12:37:51;22.80;88.00
29417;DHT22;28421;51.030;4.006;2022-08-06T12:40:19;23.00;97.10
29417;DHT22;28421;51.030;4.006;2022-08-06T12:45:27;23.30;87.80
29417;DHT22;28421;51.030;4.006;2022-08-06T12:48:02;23.40;88.00
29417;DHT22;28421;51.030;4.006;2022-08-06T12:50:28;23.80;86.90
29417;DHT22;28421;51.030;4.006;2022-08-06T12:53:21;24.00;85.40
29417;DHT22;28421;51.030;4.006;2022-08-06T12:55:48;23.30;87.80
29417;DHT22;28421;51.030;4.006;2022-08-06T12:58:16;23.10;85.70
29417;DHT22;28421;51.030;4.006;2022-08-06T13:00:47;23.30;86.50
29417;DHT22;28421;51.030;4.006;2022-08-06T13:03:14;23.50;86.40
29417;DHT22;28421;51.030;4.006;2022-08-06T13:05:42;23.30;85.60
29417;DHT22;28421;51.030;4.006;2022-08-06T13:08:09;23.10;85.60
29417;DHT22;28421;51.030;4.006;2022-08-06T13:10:35;22.70;86.60
29417;DHT22;28421;51.030;4.006;2022-08-06T13:13:06;23.00;85.30
29417;DHT22;28421;51.030;4.006;2022-08-06T13:15:34;23.10;85.60
29417;DHT22;28421;51.030;4.006;2022-08-06T13:18:12;23.20;85.30
29417;DHT22;28421;51.030;4.006;2022-08-06T13:20:44;23.10;86.30
29417;DHT22;28421;51.030;4.006;2022-08-06T13:23:11;23.60;84.50
29417;DHT22;28421;51.030;4.006;2022-08-06T13:25:45;23.90;84.20
29417;DHT22;28421;51.030;4.006;2022-08-06T13:28:15;24.20;84.00
29417;DHT22;28421;51.030;4.006;2022-08-06T13:30:42;23.90;83.20
29417;DHT22;28421;51.030;4.006;2022-08-06T13:33:26;23.30;82.10
29417;DHT22;28421;51.030;4.006;2022-08-06T13:36:07;23.30;83.60
29417;DHT22;28421;51.030;4.006;2022-08-06T13:38:34;23.50;84.60
29417;DHT22;28421;51.030;4.006;2022-08-06T13:41:02;23.80;82.80
29417;DHT22;28421;51.030;4.006;2022-08-06T13:43:38;23.50;82.90
29417;DHT22;28421;51.030;4.006;2022-08-06T13:46:09;23.30;82.20
29417;DHT22;28421;51.030;4.006;2022-08-06T13:48:35;23.40;84.60
29417;DHT22;28421;51.030;4.006;2022-08-06T13:51:01;23.40;82.80
29417;DHT22;28421;51.030;4.006;2022-08-06T13:53:26;23.60;82.10
29417;DHT22;28421;51.030;4.006;2022-08-06T13:55:52;23.70;81.80
29417;DHT22;28421;51.030;4.006;2022-08-06T13:58:18;23.70;84.10
29417;DHT22;28421;51.030;4.006;2022-08-06T14:00:43;24.00;82.20
29417;DHT22;28421;51.030;4.006;2022-08-06T14:03:13;24.10;82.70
29417;DHT22;28421;51.030;4.006;2022-08-06T14:05:38;24.10;81.40
29417;DHT22;28421;51.030;4.006;2022-08-06T14:08:04;23.70;82.60
29417;DHT22;28421;51.030;4.006;2022-08-06T14:10:30;23.60;83.30
29417;DHT22;28421;51.030;4.006;2022-08-06T14:12:56;23.80;85.40
29417;DHT22;28421;51.030;4.006;2022-08-06T14:15:41;23.90;83.00
29417;DHT22;28421;51.030;4.006;2022-08-06T14:18:07;23.80;93.80
29417;DHT22;28421;51.030;4.006;2022-08-06T14:20:32;24.10;81.90
29417;DHT22;28421;51.030;4.006;2022-08-06T14:22:58;24.50;83.00
29417;DHT22;28421;51.030;4.006;2022-08-06T14:25:24;24.10;81.30
29417;DHT22;28421;51.030;4.006;2022-08-06T14:27:51;23.90;82.80
29417;DHT22;28421;51.030;4.006;2022-08-06T14:30:17;24.00;83.10
29417;DHT22;28421;51.030;4.006;2022-08-06T14:32:43;24.00;82.40
29417;DHT22;28421;51.030;4.006;2022-08-06T14:35:10;24.40;83.30
29417;DHT22;28421;51.030;4.006;2022-08-06T14:37:36;24.10;82.10
29417;DHT22;28421;51.030;4.006;2022-08-06T14:40:02;24.50;83.10
29417;DHT22;28421;51.030;4.006;2022-08-06T14:42:28;24.40;81.70
29417;DHT22;28421;51.030;4.006;2022-08-06T14:45:13;24.20;83.30
29417;DHT22;28421;51.030;4.006;2022-08-06T14:47:39;24.30;82.70
29417;DHT22;28421;51.030;4.006;2022-08-06T14:50:04;24.40;82.40
29417;DHT22;28421;51.030;4.006;2022-08-06T14:52:30;23.80;82.10
29417;DHT22;28421;51.030;4.006;2022-08-06T14:54:56;23.70;84.50
29417;DHT22;28421;51.030;4.006;2022-08-06T14:57:22;23.80;83.50
29417;DHT22;28421;51.030;4.006;2022-08-06T14:59:48;24.10;83.40
29417;DHT22;28421;51.030;4.006;2022-08-06T15:04:40;24.00;83.40
29417;DHT22;28421;51.030;4.006;2022-08-06T15:07:06;24.50;84.80
29417;DHT22;28421;51.030;4.006;2022-08-06T15:09:33;24.60;82.20
29417;DHT22;28421;51.030;4.006;2022-08-06T15:12:00;24.30;82.90
29417;DHT22;28421;51.030;4.006;2022-08-06T15:14:26;24.20;83.20
29417;DHT22;28421;51.030;4.006;2022-08-06T15:16:55;23.80;83.70
29417;DHT22;28421;51.030;4.006;2022-08-06T15:19:21;23.70;84.00
29417;DHT22;28421;51.030;4.006;2022-08-06T15:21:47;23.50;85.20
29417;DHT22;28421;51.030;4.006;2022-08-06T15:24:13;23.90;83.90
29417;DHT22;28421;51.030;4.006;2022-08-06T15:29:06;24.50;83.40
29417;DHT22;28421;51.030;4.006;2022-08-06T15:31:32;24.00;94.60
29417;DHT22;28421;51.030;4.006;2022-08-06T15:33:58;24.10;84.40
29417;DHT22;28421;51.030;4.006;2022-08-06T15:36:24;24.10;84.80
29417;DHT22;28421;51.030;4.006;2022-08-06T15:38:50;24.20;82.80
29417;DHT22;28421;51.030;4.006;2022-08-06T15:43:44;23.90;84.80
29417;DHT22;28421;51.030;4.006;2022-08-06T15:46:10;24.40;84.50
29417;DHT22;28421;51.030;4.006;2022-08-06T15:48:35;24.20;83.60
29417;DHT22;28421;51.030;4.006;2022-08-06T15:51:01;24.20;82.60
29417;DHT22;28421;51.030;4.006;2022-08-06T15:53:27;24.00;83.50
29417;DHT22;28421;51.030;4.006;2022-08-06T15:55:53;23.80;84.10
29417;DHT22;28421;51.030;4.006;2022-08-06T15:58:18;23.10;85.80
29417;DHT22;28421;51.030;4.006;2022-08-06T16:00:44;23.10;86.20
29417;DHT22;28421;51.030;4.006;2022-08-06T16:03:12;23.20;85.50
29417;DHT22;28421;51.030;4.006;2022-08-06T16:05:39;23.10;86.30
29417;DHT22;28421;51.030;4.006;2022-08-06T16:08:07;22.90;86.60
29417;DHT22;28421;51.030;4.006;2022-08-06T16:10:36;22.80;86.90
29417;DHT22;28421;51.030;4.006;2022-08-06T16:13:05;22.80;87.80
29417;DHT22;28421;51.030;4.006;2022-08-06T16:15:31;23.10;87.40
29417;DHT22;28421;51.030;4.006;2022-08-06T16:17:57;23.00;96.50
29417;DHT22;28421;51.030;4.006;2022-08-06T16:20:22;23.20;87.50
29417;DHT22;28421;51.030;4.006;2022-08-06T16:22:50;23.10;88.10
29417;DHT22;28421;51.030;4.006;2022-08-06T16:25:15;23.50;87.10
29417;DHT22;28421;51.030;4.006;2022-08-06T16:27:43;23.60;85.90
29417;DHT22;28421;51.030;4.006;2022-08-06T16:30:09;23.20;97.20
29417;DHT22;28421;51.030;4.006;2022-08-06T16:32:35;23.50;97.10
29417;DHT22;28421;51.030;4.006;2022-08-06T16:35:01;23.80;96.70
29417;DHT22;28421;51.030;4.006;2022-08-06T16:37:27;22.90;97.10
29417;DHT22;28421;51.030;4.006;2022-08-06T16:39:54;23.50;97.50
29417;DHT22;28421;51.030;4.006;2022-08-06T16:44:46;22.90;94.90
29417;DHT22;28421;51.030;4.006;2022-08-06T16:54:30;22.60;93.40
29417;DHT22;28421;51.030;4.006;2022-08-06T17:04:34;22.00;99.90
29417;DHT22;28421;51.030;4.006;2022-08-06T17:11:56;22.20;97.20
29417;DHT22;28421;51.030;4.006;2022-08-06T17:19:15;23.50;91.20
29417;DHT22;28421;51.030;4.006;2022-08-06T17:24:07;21.80;92.40
29417;DHT22;28421;51.030;4.006;2022-08-06T17:26:32;21.90;99.60
29417;DHT22;28421;51.030;4.006;2022-08-06T17:28:58;21.60;99.70
29417;DHT22;28421;51.030;4.006;2022-08-06T17:31:24;21.30;95.20
29417;DHT22;28421;51.030;4.006;2022-08-06T17:46:00;20.90;94.10
29417;DHT22;28421;51.030;4.006;2022-08-06T17:53:18;21.10;91.50
29417;DHT22;28421;51.030;4.006;2022-08-06T17:58:11;21.50;95.50
29417;DHT22;28421;51.030;4.006;2022-08-06T18:00:37;21.20;96.50
29417;DHT22;28421;51.030;4.006;2022-08-06T18:05:29;20.60;98.40
29417;DHT22;28421;51.030;4.006;2022-08-06T18:07:55;21.00;99.90
29417;DHT22;28421;51.030;4.006;2022-08-06T18:12:55;20.80;99.90
29417;DHT22;28421;51.030;4.006;2022-08-06T18:17:53;20.60;90.60
29417;DHT22;28421;51.030;4.006;2022-08-06T18:20:20;20.20;96.00
29417;DHT22;28421;51.030;4.006;2022-08-06T18:22:46;20.20;99.70
29417;DHT22;28421;51.030;4.006;2022-08-06T18:25:13;20.10;97.20
29417;DHT22;28421;51.030;4.006;2022-08-06T18:27:39;20.30;90.60
29417;DHT22;28421;51.030;4.006;2022-08-06T18:30:07;20.20;90.50
29417;DHT22;28421;51.030;4.006;2022-08-06T18:32:33;20.40;99.90
29417;DHT22;28421;51.030;4.006;2022-08-06T18:39:51;19.50;99.60
29417;DHT22;28421;51.030;4.006;2022-08-06T18:47:09;19.80;95.40
29417;DHT22;28421;51.030;4.006;2022-08-06T18:52:07;20.10;99.90
29417;DHT22;28421;51.030;4.006;2022-08-06T18:57:02;19.60;93.10
29417;DHT22;28421;51.030;4.006;2022-08-06T19:01:56;19.50;93.50
29417;DHT22;28421;51.030;4.006;2022-08-06T19:06:48;19.10;97.60
29417;DHT22;28421;51.030;4.006;2022-08-06T19:14:06;19.20;94.70
29417;DHT22;28421;51.030;4.006;2022-08-06T19:16:32;19.10;99.90
29417;DHT22;28421;51.030;4.006;2022-08-06T19:18:58;19.40;98.00
29417;DHT22;28421;51.030;4.006;2022-08-06T19:21:27;19.20;95.10
29417;DHT22;28421;51.030;4.006;2022-08-06T19:23:53;19.00;96.00
29417;DHT22;28421;51.030;4.006;2022-08-06T19:26:19;18.80;99.10
29417;DHT22;28421;51.030;4.006;2022-08-06T19:36:03;18.70;97.60
29417;DHT22;28421;51.030;4.006;2022-08-06T19:40:55;18.60;99.90
29417;DHT22;28421;51.030;4.006;2022-08-06T19:43:21;18.30;98.90
29417;DHT22;28421;51.030;4.006;2022-08-06T19:45:48;18.40;97.70
29417;DHT22;28421;51.030;4.006;2022-08-06T19:48:14;18.60;99.90
29417;DHT22;28421;51.030;4.006;2022-08-06T19:50:42;18.30;98.00
29417;DHT22;28421;51.030;4.006;2022-08-06T19:53:08;18.90;98.30
29417;DHT22;28421;51.030;4.006;2022-08-06T19:55:34;17.90;98.20
29417;DHT22;28421;51.030;4.006;2022-08-06T19:58:01;18.00;99.90
29417;DHT22;28421;51.030;4.006;2022-08-06T20:00:27;17.60;99.90
29417;DHT22;28421;51.030;4.006;2022-08-06T20:02:53;18.00;99.90
29417;DHT22;28421;51.030;4.006;2022-08-06T20:05:23;18.10;99.00
29417;DHT22;28421;51.030;4.006;2022-08-06T20:07:50;18.20;99.00
29417;DHT22;28421;51.030;4.006;2022-08-06T20:15:17;18.00;99.60
29417;DHT22;28421;51.030;4.006;2022-08-06T20:17:44;17.90;99.50
29417;DHT22;28421;51.030;4.006;2022-08-06T20:20:11;18.20;99.90
29417;DHT22;28421;51.030;4.006;2022-08-06T20:22:38;18.10;99.90